Time;durP1;ratioP1;P1;durP2;ratioP2;P2;SDS_P1;SDS_P2;PMS_P1;PMS_P2;Temp;Humidity;BMP_temperature;BMP_pressure;BME280_temperature;BME280_humidity;BME280_pressure;Samples;Min_cycle;Max_cycle;Signal;HPM_P1;HPM_P2
2021/08/11 00:00:07;;;;;;;17.38;14.20;;;18.20;99.90;;;;;;5055409;28;20056;-80
2021/08/11 00:02:34;;;;;;;20.73;14.75;;;18.10;99.90;;;;;;5058601;28;20140;-79
2021/08/11 00:05:01;;;;;;;20.17;15.05;;;18.10;99.90;;;;;;5059937;28;20049;-80
2021/08/11 00:07:27;;;;;;;17.98;14.48;;;18.00;99.90;;;;;;5060672;28;20158;-80
2021/08/11 00:09:55;;;;;;;17.33;14.43;;;18.00;99.90;;;;;;5060461;28;20140;-79
2021/08/11 00:12:24;;;;;;;22.65;15.25;;;18.00;99.90;;;;;;5060036;28;20084;-80
2021/08/11 00:14:51;;;;;;;16.80;14.85;;;18.00;99.90;;;;;;5059783;28;20124;-80
2021/08/11 00:17:18;;;;;;;17.70;14.65;;;18.00;99.90;;;;;;5059590;28;20105;-80
2021/08/11 00:19:45;;;;;;;18.88;14.93;;;18.00;99.90;;;;;;5059613;28;20116;-80
2021/08/11 00:22:11;;;;;;;19.63;14.50;;;17.90;99.90;;;;;;5062053;28;20052;-80
2021/08/11 00:24:38;;;;;;;19.08;14.38;;;17.90;99.90;;;;;;5062195;28;20131;-80
2021/08/11 00:27:05;;;;;;;19.35;14.43;;;17.90;99.90;;;;;;5061245;28;20063;-80
2021/08/11 00:29:33;;;;;;;19.73;14.65;;;17.90;99.90;;;;;;5060424;28;20101;-79
2021/08/11 00:32:00;;;;;;;17.52;13.57;;;17.80;99.90;;;;;;5060894;28;20128;-80
2021/08/11 00:34:28;;;;;;;20.05;13.48;;;17.80;99.90;;;;;;5060166;28;20132;-80
2021/08/11 00:36:55;;;;;;;20.35;14.20;;;17.80;99.90;;;;;;5060146;28;20057;-79
2021/08/11 00:39:22;;;;;;;20.10;14.90;;;17.70;99.90;;;;;;5060557;28;20053;-80
2021/08/11 00:41:50;;;;;;;18.00;15.02;;;17.60;99.90;;;;;;5060674;28;20084;-79
2021/08/11 00:44:17;;;;;;;22.55;15.82;;;17.60;99.90;;;;;;5061387;28;20076;-81
2021/08/11 00:46:47;;;;;;;22.30;15.20;;;17.60;99.90;;;;;;5062236;28;20045;-80
2021/08/11 00:49:15;;;;;;;19.50;15.75;;;17.60;99.90;;;;;;5067337;28;20049;-80
2021/08/11 00:51:43;;;;;;;19.15;15.02;;;17.50;99.90;;;;;;5066868;28;20470;-81
2021/08/11 00:54:11;;;;;;;18.45;15.93;;;17.50;99.90;;;;;;5057598;28;20051;-79
2021/08/11 00:56:40;;;;;;;21.63;15.50;;;17.50;99.90;;;;;;5056053;28;20157;-79
2021/08/11 00:59:08;;;;;;;23.42;15.27;;;17.50;99.90;;;;;;5056395;28;20055;-79
2021/08/11 01:01:38;;;;;;;21.90;15.50;;;17.50;99.90;;;;;;5056174;28;20053;-78
2021/08/11 01:04:11;;;;;;;18.58;15.00;;;17.50;99.90;;;;;;5056314;28;20139;-79
2021/08/11 01:06:40;;;;;;;20.95;15.57;;;17.60;99.90;;;;;;5056690;28;20084;-79
2021/08/11 01:09:07;;;;;;;20.75;15.18;;;17.60;99.90;;;;;;5056520;28;20131;-79
2021/08/11 01:11:35;;;;;;;23.35;15.88;;;17.60;99.90;;;;;;5056121;28;20053;-79
2021/08/11 01:14:02;;;;;;;21.40;16.77;;;17.60;99.90;;;;;;5056509;28;20531;-79
2021/08/11 01:16:29;;;;;;;22.23;15.80;;;17.60;99.90;;;;;;5059364;28;20103;-80
2021/08/11 01:18:56;;;;;;;19.38;16.00;;;17.60;99.90;;;;;;5059779;28;20076;-80
2021/08/11 01:21:29;;;;;;;20.27;16.73;;;17.60;99.90;;;;;;5058394;28;20132;-78
2021/08/11 01:24:02;;;;;;;21.35;16.35;;;17.60;99.90;;;;;;5053973;28;20080;-78
2021/08/11 01:26:59;;;;;;;23.20;16.88;;;17.60;99.90;;;;;;5054879;28;20053;-78
2021/08/11 01:29:31;;;;;;;19.80;15.98;;;17.60;99.90;;;;;;5056475;28;20104;-79
2021/08/11 01:32:03;;;;;;;20.98;15.05;;;17.60;99.90;;;;;;5055333;28;20481;-79
2021/08/11 01:34:37;;;;;;;20.58;16.48;;;17.60;99.90;;;;;;5053646;28;20053;-78
2021/08/11 01:37:07;;;;;;;20.25;15.38;;;17.60;99.90;;;;;;5054481;28;20080;-78
2021/08/11 01:39:38;;;;;;;19.98;15.43;;;17.60;99.90;;;;;;5054451;28;20049;-78
2021/08/11 01:42:08;;;;;;;21.52;15.88;;;17.50;99.90;;;;;;5053596;28;20140;-78
2021/08/11 01:44:39;;;;;;;19.15;14.88;;;17.50;99.90;;;;;;5053315;28;20063;-78
2021/08/11 01:47:10;;;;;;;19.13;15.20;;;17.50;99.90;;;;;;5053651;28;20084;-78
2021/08/11 01:49:39;;;;;;;22.00;16.27;;;17.50;99.90;;;;;;5054114;28;20076;-78
2021/08/11 01:52:07;;;;;;;17.40;15.15;;;17.50;99.90;;;;;;5053640;28;20053;-78
2021/08/11 01:54:36;;;;;;;21.33;16.70;;;17.40;99.90;;;;;;5053065;28;20420;-77
2021/08/11 01:57:05;;;;;;;19.73;16.40;;;17.40;99.90;;;;;;5053394;28;20130;-77
2021/08/11 01:59:32;;;;;;;24.15;17.05;;;17.30;99.90;;;;;;5053325;28;20140;-77
2021/08/11 02:01:59;;;;;;;24.20;17.15;;;17.30;99.90;;;;;;5053476;28;20053;-78
2021/08/11 02:04:26;;;;;;;23.20;16.48;;;17.20;99.90;;;;;;5053197;28;20131;-78
2021/08/11 02:06:56;;;;;;;25.27;18.17;;;17.20;99.90;;;;;;5053216;28;20128;-77
2021/08/11 02:09:23;;;;;;;27.02;17.42;;;17.20;99.90;;;;;;5053395;28;20055;-79
2021/08/11 02:11:50;;;;;;;26.58;17.73;;;17.20;99.90;;;;;;5054445;28;20529;-78
2021/08/11 02:14:17;;;;;;;31.58;18.50;;;17.10;99.90;;;;;;5054219;28;20088;-78
2021/08/11 02:16:44;;;;;;;52.55;18.60;;;17.10;99.90;;;;;;5054533;28;20107;-78
2021/08/11 02:19:11;;;;;;;37.72;19.02;;;17.00;99.90;;;;;;5054815;28;20084;-79
2021/08/11 02:21:39;;;;;;;33.15;19.27;;;16.90;99.90;;;;;;5055783;28;20497;-80
2021/08/11 02:24:10;;;;;;;26.48;18.55;;;16.90;99.90;;;;;;5055783;28;20091;-79
2021/08/11 02:26:43;;;;;;;24.50;18.05;;;16.90;99.90;;;;;;5055140;28;20431;-79
2021/08/11 02:29:22;;;;;;;24.23;16.92;;;17.00;99.90;;;;;;5054834;28;20076;-79
2021/08/11 02:31:54;;;;;;;21.27;16.83;;;16.90;99.90;;;;;;5054375;28;20084;-79
2021/08/11 02:34:31;;;;;;;24.42;17.80;;;16.90;99.90;;;;;;5053259;28;20064;-78
2021/08/11 02:37:02;;;;;;;22.52;16.30;;;16.90;99.90;;;;;;5052657;28;20059;-78
2021/08/11 02:39:36;;;;;;;20.13;15.65;;;16.90;99.90;;;;;;5052891;28;20132;-78
2021/08/11 02:42:09;;;;;;;23.38;17.05;;;16.90;99.90;;;;;;5052803;28;20083;-79
2021/08/11 02:44:40;;;;;;;20.83;16.70;;;16.90;99.90;;;;;;5052644;28;20161;-79
2021/08/11 02:47:07;;;;;;;19.45;15.55;;;16.80;99.90;;;;;;5053825;28;20131;-78
2021/08/11 02:49:35;;;;;;;22.55;16.02;;;16.80;99.90;;;;;;5054745;28;20108;-79
2021/08/11 02:52:03;;;;;;;20.23;14.80;;;16.80;99.90;;;;;;5054045;28;20091;-78
2021/08/11 02:54:32;;;;;;;19.20;15.57;;;16.80;99.90;;;;;;5053663;28;20053;-78
2021/08/11 02:57:02;;;;;;;20.85;15.05;;;16.80;99.90;;;;;;5053375;28;20079;-79
2021/08/11 02:59:29;;;;;;;18.80;14.98;;;16.80;99.90;;;;;;5052660;28;20445;-78
2021/08/11 03:01:57;;;;;;;21.02;14.95;;;16.70;99.90;;;;;;5053043;28;20049;-78
2021/08/11 03:04:23;;;;;;;19.38;14.65;;;16.70;99.90;;;;;;5054311;28;20080;-79
2021/08/11 03:06:51;;;;;;;19.60;15.52;;;16.70;99.90;;;;;;5054545;28;20128;-79
2021/08/11 03:09:20;;;;;;;23.60;16.27;;;16.70;99.90;;;;;;5054614;28;20128;-79
2021/08/11 03:11:49;;;;;;;19.80;15.43;;;16.70;99.90;;;;;;5054544;28;20045;-79
2021/08/11 03:14:17;;;;;;;23.20;15.98;;;16.60;99.90;;;;;;5053572;28;20588;-79
2021/08/11 03:16:43;;;;;;;20.50;15.77;;;16.60;99.90;;;;;;5053886;28;20055;-79
2021/08/11 03:19:10;;;;;;;20.13;15.70;;;16.60;99.90;;;;;;5053123;28;20131;-79
2021/08/11 03:21:38;;;;;;;19.23;14.43;;;16.60;99.90;;;;;;5052844;28;20056;-78
2021/08/11 03:24:06;;;;;;;18.92;14.75;;;16.60;99.90;;;;;;5052820;28;20140;-79
2021/08/11 03:26:33;;;;;;;19.35;15.07;;;16.60;99.90;;;;;;5052743;28;20098;-78
2021/08/11 03:29:02;;;;;;;19.88;14.80;;;16.50;99.90;;;;;;5052457;28;20445;-78
2021/08/11 03:31:29;;;;;;;18.50;14.52;;;16.50;99.90;;;;;;5052406;28;20099;-77
2021/08/11 03:33:59;;;;;;;18.13;14.23;;;16.40;99.90;;;;;;5052610;28;20136;-77
2021/08/11 03:36:27;;;;;;;22.80;15.38;;;16.40;99.90;;;;;;5053225;28;20091;-77
2021/08/11 03:38:54;;;;;;;20.95;15.25;;;16.40;99.90;;;;;;5056895;28;20080;-77
2021/08/11 03:41:21;;;;;;;22.60;16.50;;;16.30;99.90;;;;;;5057627;28;20140;-78
2021/08/11 03:43:47;;;;;;;28.58;16.70;;;16.30;99.90;;;;;;5057293;28;20056;-78
2021/08/11 03:46:16;;;;;;;26.00;16.58;;;16.30;99.90;;;;;;5058372;28;20190;-78
2021/08/11 03:48:43;;;;;;;28.98;16.77;;;16.30;99.90;;;;;;5056853;28;20137;-78
2021/08/11 03:51:09;;;;;;;34.40;17.13;;;16.30;99.90;;;;;;5056653;28;20140;-78
2021/08/11 03:53:38;;;;;;;29.60;16.63;;;16.30;99.90;;;;;;5057028;28;20141;-78
2021/08/11 03:56:06;;;;;;;25.50;16.02;;;16.20;99.90;;;;;;5057005;28;20132;-78
2021/08/11 03:58:33;;;;;;;26.10;16.85;;;16.20;99.90;;;;;;5056296;28;20053;-78
2021/08/11 04:01:00;;;;;;;22.65;16.13;;;16.20;99.90;;;;;;5056636;28;20051;-78
2021/08/11 04:03:28;;;;;;;21.98;14.45;;;16.20;99.90;;;;;;5056141;28;20136;-78
2021/08/11 04:05:55;;;;;;;24.65;13.85;;;16.20;99.90;;;;;;5056201;28;20135;-78
2021/08/11 04:08:22;;;;;;;19.73;13.77;;;16.10;99.90;;;;;;5055876;28;20060;-79
2021/08/11 04:10:48;;;;;;;14.55;12.93;;;16.10;99.90;;;;;;5057313;28;20136;-79
2021/08/11 04:13:18;;;;;;;16.38;12.65;;;16.10;99.90;;;;;;5057519;28;20354;-80
2021/08/11 04:15:45;;;;;;;16.48;12.73;;;16.10;99.90;;;;;;5056677;28;20057;-79
2021/08/11 04:18:13;;;;;;;21.58;12.90;;;15.90;99.90;;;;;;5056459;28;20135;-79
2021/08/11 04:20:42;;;;;;;13.43;12.02;;;15.90;99.90;;;;;;5057088;28;20548;-78
2021/08/11 04:23:09;;;;;;;16.52;11.63;;;15.90;99.90;;;;;;5057399;28;20088;-78
2021/08/11 04:25:39;;;;;;;12.43;11.13;;;16.00;99.90;;;;;;5058240;28;20078;-79
2021/08/11 04:28:07;;;;;;;15.65;11.30;;;15.90;99.90;;;;;;5056191;28;20048;-79
2021/08/11 04:30:34;;;;;;;17.23;10.55;;;15.90;99.90;;;;;;5055794;28;20045;-79
2021/08/11 04:33:01;;;;;;;13.65;10.80;;;15.90;99.90;;;;;;5056187;28;20136;-79
2021/08/11 04:35:28;;;;;;;14.32;10.57;;;15.90;99.90;;;;;;5057613;28;20096;-79
2021/08/11 04:37:57;;;;;;;12.63;10.45;;;16.00;99.90;;;;;;5060230;28;20135;-79
2021/08/11 04:40:24;;;;;;;12.82;10.43;;;16.10;99.90;;;;;;5060786;28;20109;-79
2021/08/11 04:42:51;;;;;;;15.52;9.95;;;16.10;99.90;;;;;;5061572;28;20088;-79
2021/08/11 04:45:18;;;;;;;12.18;10.63;;;16.20;99.90;;;;;;5060762;28;20131;-79
2021/08/11 04:47:46;;;;;;;11.30;9.80;;;16.20;99.90;;;;;;5060976;28;20135;-80
2021/08/11 04:50:13;;;;;;;15.10;10.60;;;16.30;99.90;;;;;;5065948;28;20102;-80
2021/08/11 04:52:40;;;;;;;13.80;10.90;;;16.30;99.90;;;;;;5064566;28;20055;-79
2021/08/11 04:55:11;;;;;;;15.23;10.70;;;16.30;99.90;;;;;;5064900;28;20089;-79
2021/08/11 04:57:38;;;;;;;16.40;10.10;;;16.30;99.90;;;;;;5062126;28;20068;-78
2021/08/11 05:00:06;;;;;;;13.93;10.30;;;16.40;99.90;;;;;;5059067;28;20485;-79
2021/08/11 05:02:33;;;;;;;13.50;10.93;;;16.40;99.90;;;;;;5059033;28;20079;-79
2021/08/11 05:05:00;;;;;;;13.30;10.25;;;16.50;99.90;;;;;;5055074;28;20092;-80
2021/08/11 05:07:28;;;;;;;14.85;10.65;;;16.50;99.90;;;;;;5055438;28;20131;-79
2021/08/11 05:09:55;;;;;;;11.18;9.93;;;16.60;99.90;;;;;;5056194;28;20080;-79
2021/08/11 05:12:24;;;;;;;11.60;10.07;;;16.60;99.90;;;;;;5058177;28;20049;-79
2021/08/11 05:14:51;;;;;;;10.82;9.73;;;16.70;99.90;;;;;;5060308;28;20045;-79
2021/08/11 05:17:21;;;;;;;10.60;9.00;;;16.80;99.90;;;;;;5057733;28;20084;-79
2021/08/11 05:19:49;;;;;;;9.50;8.50;;;16.90;99.90;;;;;;5056884;28;20099;-79
2021/08/11 05:22:16;;;;;;;9.95;8.25;;;17.00;99.90;;;;;;5056691;28;20572;-78
2021/08/11 05:24:43;;;;;;;9.43;8.50;;;17.00;99.90;;;;;;5057849;28;20136;-78
2021/08/11 05:27:09;;;;;;;11.57;8.48;;;17.10;99.90;;;;;;5055628;28;20049;-78
2021/08/11 05:29:39;;;;;;;12.40;9.30;;;17.20;99.90;;;;;;5054789;28;20465;-78
2021/08/11 05:32:07;;;;;;;10.30;8.57;;;17.30;99.90;;;;;;5054410;28;20068;-77
2021/08/11 05:34:33;;;;;;;14.48;8.25;;;17.40;99.90;;;;;;5055206;28;20449;-80
2021/08/11 05:37:00;;;;;;;9.70;8.30;;;17.50;99.90;;;;;;5058650;28;20132;-79
2021/08/11 05:39:27;;;;;;;10.90;7.95;;;17.80;99.90;;;;;;5058435;28;20492;-80
2021/08/11 05:41:54;;;;;;;11.18;7.85;;;18.30;99.90;;;;;;5058315;28;20576;-80
2021/08/11 05:44:21;;;;;;;9.23;7.55;;;18.70;99.90;;;;;;5059348;28;20116;-80
2021/08/11 05:46:49;;;;;;;13.30;7.10;;;19.10;99.90;;;;;;5059409;28;20388;-80
2021/08/11 05:49:16;;;;;;;10.55;7.20;;;19.40;99.90;;;;;;5059705;28;20144;-80
2021/08/11 05:51:44;;;;;;;9.70;6.80;;;19.90;99.90;;;;;;5059157;28;20045;-80
2021/08/11 05:54:11;;;;;;;10.48;7.38;;;20.00;99.90;;;;;;5058187;28;20515;-80
2021/08/11 05:56:38;;;;;;;9.30;7.18;;;20.30;99.90;;;;;;5059216;28;20099;-79
2021/08/11 05:59:05;;;;;;;9.75;6.60;;;21.10;99.90;;;;;;5057217;28;20108;-79
2021/08/11 06:01:32;;;;;;;7.55;6.75;;;21.60;99.90;;;;;;5057761;28;20108;-79
2021/08/11 06:04:01;;;;;;;8.70;7.03;;;21.70;99.90;;;;;;5056497;28;20048;-79
2021/08/11 06:06:28;;;;;;;11.15;7.22;;;21.40;99.90;;;;;;5057912;28;20512;-80
2021/08/11 06:08:55;;;;;;;11.68;8.30;;;21.30;99.90;;;;;;5057126;28;20131;-80
2021/08/11 06:11:22;;;;;;;11.27;7.80;;;21.00;99.90;;;;;;5057048;28;20106;-80
2021/08/11 06:13:49;;;;;;;11.57;7.82;;;20.90;99.90;;;;;;5057809;28;20139;-80
2021/08/11 06:16:16;;;;;;;9.88;8.20;;;20.70;99.90;;;;;;5058527;28;20091;-80
2021/08/11 06:18:43;;;;;;;10.88;7.82;;;20.50;99.90;;;;;;5056640;28;20144;-80
2021/08/11 06:21:11;;;;;;;12.68;8.40;;;20.60;99.90;;;;;;5057863;28;20069;-80
2021/08/11 06:23:38;;;;;;;11.07;8.55;;;20.70;99.90;;;;;;5058350;28;20109;-80
2021/08/11 06:26:05;;;;;;;10.68;8.48;;;20.60;99.90;;;;;;5057282;28;20400;-79
2021/08/11 06:28:32;;;;;;;10.95;8.75;;;20.70;99.90;;;;;;5043107;22;20046;-75
2021/08/11 06:30:59;;;;;;;11.98;8.40;;;20.70;99.90;;;;;;5018449;28;20054;-78
2021/08/11 06:33:26;;;;;;;11.73;8.20;;;20.70;99.90;;;;;;5008755;28;20573;-77
2021/08/11 06:35:52;;;;;;;12.27;8.80;;;21.00;99.90;;;;;;5009093;28;20052;-76
2021/08/11 06:38:21;;;;;;;11.77;8.73;;;21.70;99.90;;;;;;5076279;28;20507;-77
2021/08/11 06:40:48;;;;;;;10.48;8.50;;;22.10;99.90;;;;;;5102403;28;20072;-76
2021/08/11 06:43:15;;;;;;;12.10;8.00;;;22.60;99.90;;;;;;5111384;28;20400;-75
2021/08/11 06:45:41;;;;;;;11.63;7.55;;;23.00;99.90;;;;;;5111421;28;20051;-78
2021/08/11 06:48:08;;;;;;;11.93;8.27;;;23.60;99.90;;;;;;5111363;28;20079;-75
2021/08/11 06:50:35;;;;;;;18.20;8.35;;;23.80;99.90;;;;;;5097458;28;20044;-76
2021/08/11 06:53:02;;;;;;;11.38;7.90;;;24.10;99.90;;;;;;5091067;28;20141;-76
2021/08/11 06:55:31;;;;;;;9.52;8.00;;;24.20;99.90;;;;;;5091443;28;20048;-75
2021/08/11 06:57:58;;;;;;;13.65;9.05;;;24.40;99.90;;;;;;5091485;28;20522;-76
2021/08/11 07:00:24;;;;;;;10.82;7.97;;;24.30;99.90;;;;;;5092035;28;20548;-75
2021/08/11 07:02:51;;;;;;;10.20;7.55;;;24.40;99.90;;;;;;5091578;28;20048;-75
2021/08/11 07:05:19;;;;;;;10.45;8.13;;;24.40;99.90;;;;;;5091385;28;20119;-76
2021/08/11 07:07:46;;;;;;;11.10;8.35;;;24.00;99.90;;;;;;5090563;28;20055;-76
2021/08/11 07:10:14;;;;;;;11.82;8.80;;;24.00;99.90;;;;;;5093648;28;20549;-76
2021/08/11 07:12:43;;;;;;;10.38;8.20;;;24.10;99.90;;;;;;5095764;28;20050;-76
2021/08/11 07:15:11;;;;;;;10.20;7.43;;;24.50;99.90;;;;;;5095944;28;20138;-76
2021/08/11 07:17:49;;;;;;;9.10;8.10;;;25.10;99.90;;;;;;5095831;28;20048;-76
2021/08/11 07:20:16;;;;;;;11.65;7.80;;;25.70;99.90;;;;;;5095638;28;20130;-76
2021/08/11 07:22:43;;;;;;;9.65;8.20;;;26.30;99.90;;;;;;5095809;28;20127;-76
2021/08/11 07:25:11;;;;;;;12.23;7.63;;;26.40;99.90;;;;;;5095787;28;20090;-76
2021/08/11 07:27:38;;;;;;;11.05;8.52;;;26.70;99.90;;;;;;5095612;28;20052;-78
2021/08/11 07:30:07;;;;;;;10.18;7.55;;;27.00;99.90;;;;;;5095049;28;20195;-76
2021/08/11 07:32:34;;;;;;;12.50;8.60;;;27.00;99.90;;;;;;5095292;28;20079;-77
2021/08/11 07:35:01;;;;;;;14.45;7.60;;;26.60;99.90;;;;;;5095259;28;20134;-76
2021/08/11 07:37:28;;;;;;;12.20;8.00;;;26.40;99.90;;;;;;5095113;28;20130;-75
2021/08/11 07:39:56;;;;;;;11.07;8.30;;;26.40;99.90;;;;;;5095527;28;20135;-77
2021/08/11 07:42:23;;;;;;;8.88;7.88;;;26.90;99.90;;;;;;5095098;28;20047;-76
2021/08/11 07:44:50;;;;;;;11.63;7.70;;;26.90;99.90;;;;;;5094630;28;20052;-76
2021/08/11 07:47:18;;;;;;;13.15;8.00;;;26.50;99.90;;;;;;5094719;28;20159;-77
2021/08/11 07:49:45;;;;;;;9.80;7.95;;;26.50;99.90;;;;;;5094486;28;20075;-76
2021/08/11 07:52:12;;;;;;;9.55;7.90;;;26.70;99.90;;;;;;5094476;28;20087;-77
2021/08/11 07:54:39;;;;;;;15.50;9.15;;;27.00;99.90;;;;;;5094605;28;20127;-76
2021/08/11 07:57:06;;;;;;;17.83;9.93;;;27.40;99.90;;;;;;5095009;28;20481;-76
2021/08/11 07:59:33;;;;;;;17.25;9.85;;;27.60;99.90;;;;;;5094586;28;20433;-76
2021/08/11 08:02:00;;;;;;;15.20;9.55;;;27.50;99.90;;;;;;5094233;28;20499;-76
2021/08/11 08:04:28;;;;;;;11.13;8.68;;;27.40;99.90;;;;;;5094173;28;20079;-76
2021/08/11 08:06:55;;;;;;;12.35;8.85;;;27.30;99.90;;;;;;5094753;28;20127;-74
2021/08/11 08:09:22;;;;;;;12.15;8.93;;;27.00;99.90;;;;;;5100191;28;20127;-76
2021/08/11 08:11:49;;;;;;;11.68;8.40;;;26.90;99.90;;;;;;5101486;28;20496;-76
2021/08/11 08:14:16;;;;;;;15.43;9.10;;;26.60;99.90;;;;;;5102910;28;20501;-75
2021/08/11 08:16:43;;;;;;;12.80;9.45;;;26.40;99.90;;;;;;5107707;28;20508;-75
2021/08/11 08:19:10;;;;;;;14.30;8.55;;;26.10;99.90;;;;;;5101573;28;20040;-76
2021/08/11 08:21:38;;;;;;;14.88;9.20;;;25.90;99.90;;;;;;5100911;28;20040;-75
2021/08/11 08:24:05;;;;;;;14.45;9.05;;;26.10;99.90;;;;;;5105815;28;20496;-75
2021/08/11 08:26:32;;;;;;;15.85;9.10;;;26.40;99.90;;;;;;5105490;28;20470;-75
2021/08/11 08:28:59;;;;;;;14.32;9.68;;;26.90;99.90;;;;;;5104895;28;20082;-75
2021/08/11 08:31:26;;;;;;;11.57;9.45;;;27.10;99.90;;;;;;5101571;28;20086;-75
2021/08/11 08:33:54;;;;;;;14.07;9.77;;;26.80;99.90;;;;;;5105374;28;20044;-73
2021/08/11 08:36:20;;;;;;;11.55;9.05;;;26.80;99.90;;;;;;5098208;28;20497;-74
2021/08/11 08:38:49;;;;;;;13.27;9.52;;;26.50;99.90;;;;;;5105543;28;20433;-75
2021/08/11 08:41:16;;;;;;;10.00;8.65;;;26.40;99.90;;;;;;5100537;28;20097;-75
2021/08/11 08:43:43;;;;;;;12.32;9.27;;;26.20;99.90;;;;;;5106044;28;20065;-75
2021/08/11 08:46:10;;;;;;;10.38;8.68;;;25.80;99.90;;;;;;5102300;28;20074;-75
2021/08/11 08:48:40;;;;;;;11.57;8.18;;;25.60;99.90;;;;;;5101989;28;20490;-75
2021/08/11 08:51:11;;;;;;;11.82;8.20;;;25.60;99.90;;;;;;5101707;28;20047;-75
2021/08/11 08:53:39;;;;;;;8.88;7.97;;;25.90;99.90;;;;;;5103466;28;20415;-76
2021/08/11 08:56:08;;;;;;;11.43;7.95;;;26.10;99.90;;;;;;5105899;28;20131;-75
2021/08/11 08:58:35;;;;;;;12.43;9.13;;;26.30;99.90;;;;;;5101951;28;20052;-76
2021/08/11 09:01:02;;;;;;;11.70;9.60;;;26.70;99.90;;;;;;5101907;28;20090;-75
2021/08/11 09:03:29;;;;;;;10.40;7.75;;;26.60;99.90;;;;;;5107662;28;20091;-75
2021/08/11 09:05:56;;;;;;;12.38;8.93;;;27.00;99.90;;;;;;5102180;28;20472;-75
2021/08/11 09:08:23;;;;;;;12.02;9.40;;;27.30;99.90;;;;;;5105696;28;20580;-75
2021/08/11 09:10:52;;;;;;;12.10;9.57;;;27.00;99.90;;;;;;5103256;28;20075;-75
2021/08/11 09:13:24;;;;;;;13.93;9.98;;;27.10;99.90;;;;;;5101368;28;20070;-75
2021/08/11 09:15:52;;;;;;;16.00;10.33;;;26.60;99.90;;;;;;5106681;28;20039;-76
2021/08/11 09:18:21;;;;;;;12.45;10.38;;;26.70;99.90;;;;;;5111621;28;20293;-75
2021/08/11 09:20:49;;;;;;;10.50;8.70;;;26.70;99.90;;;;;;5098417;28;20079;-76
2021/08/11 09:23:32;;;;;;;10.57;7.45;;;26.80;99.90;;;;;;5093146;28;20135;-75
2021/08/11 09:26:01;;;;;;;10.43;6.43;;;26.90;99.90;;;;;;5094887;28;20056;-76
2021/08/11 09:28:31;;;;;;;8.63;6.22;;;26.40;99.90;;;;;;5093340;28;20090;-76
2021/08/11 09:30:58;;;;;;;8.65;6.53;;;26.10;99.90;;;;;;5103624;28;20048;-73
2021/08/11 09:33:25;;;;;;;9.00;6.75;;;26.00;99.90;;;;;;5102384;28;20472;-75
2021/08/11 09:35:53;;;;;;;10.45;7.70;;;25.80;99.90;;;;;;5095570;28;20093;-75
2021/08/11 09:38:21;;;;;;;11.23;8.98;;;25.80;99.90;;;;;;5098726;28;20127;-74
2021/08/11 09:40:49;;;;;;;16.13;7.35;;;25.40;99.90;;;;;;5096717;28;20135;-75
2021/08/11 09:43:17;;;;;;;11.98;7.97;;;25.30;99.90;;;;;;5094591;28;20516;-75
2021/08/11 09:45:48;;;;;;;10.93;8.73;;;25.10;99.90;;;;;;5102567;28;20081;-75
2021/08/11 09:48:16;;;;;;;10.80;8.18;;;24.90;99.90;;;;;;5103857;28;20047;-76
2021/08/11 09:50:47;;;;;;;10.02;6.82;;;24.90;99.90;;;;;;5096012;28;20044;-77
2021/08/11 09:53:16;;;;;;;10.73;6.38;;;24.80;99.90;;;;;;5100810;28;20135;-76
2021/08/11 09:56:02;;;;;;;8.20;5.95;;;24.70;99.90;;;;;;5101900;28;20052;-76
2021/08/11 09:58:34;;;;;;;8.88;6.25;;;24.70;99.90;;;;;;5093378;28;20135;-75
2021/08/11 10:01:02;;;;;;;10.82;6.80;;;24.80;99.90;;;;;;5093135;28;20403;-75
2021/08/11 10:03:29;;;;;;;8.57;6.05;;;25.00;99.90;;;;;;5093133;28;20445;-76
2021/08/11 10:05:56;;;;;;;8.27;5.85;;;25.20;99.90;;;;;;5093407;28;20134;-76
2021/08/11 10:08:34;;;;;;;7.15;5.32;;;25.40;99.90;;;;;;5092999;28;20075;-76
2021/08/11 10:11:02;;;;;;;7.70;5.68;;;25.70;99.90;;;;;;5093504;28;20080;-76
2021/08/11 10:13:30;;;;;;;10.18;5.85;;;25.70;99.90;;;;;;5098846;28;20426;-76
2021/08/11 10:15:57;;;;;;;6.60;5.50;;;25.80;99.90;;;;;;5113057;28;20055;-76
2021/08/11 10:18:27;;;;;;;5.72;4.68;;;26.00;99.90;;;;;;5112072;28;20130;-75
2021/08/11 10:20:57;;;;;;;7.25;4.88;;;26.10;99.90;;;;;;5091965;28;20076;-75
2021/08/11 10:23:24;;;;;;;6.80;4.63;;;26.10;99.90;;;;;;5091889;28;20079;-75
2021/08/11 10:25:52;;;;;;;5.63;4.85;;;26.20;99.90;;;;;;5092282;28;20119;-75
2021/08/11 10:28:20;;;;;;;5.55;4.05;;;26.50;99.90;;;;;;5091800;28;20134;-75
2021/08/11 10:30:50;;;;;;;5.53;4.68;;;26.50;99.90;;;;;;5092144;28;20048;-75
2021/08/11 10:33:18;;;;;;;5.90;4.72;;;26.40;99.90;;;;;;5092106;28;20151;-74
2021/08/11 10:35:49;;;;;;;7.32;4.35;;;26.20;99.90;;;;;;5091993;28;20054;-74
2021/08/11 10:38:16;;;;;;;9.15;4.90;;;26.10;99.90;;;;;;5092343;28;20044;-75
2021/08/11 10:40:51;;;;;;;7.18;5.05;;;26.00;99.90;;;;;;5091747;28;20456;-75
2021/08/11 10:43:18;;;;;;;7.10;5.15;;;25.90;99.90;;;;;;5091713;28;20044;-74
2021/08/11 10:45:57;;;;;;;5.97;5.18;;;26.00;99.90;;;;;;5091645;28;20052;-74
2021/08/11 10:48:24;;;;;;;6.68;5.03;;;26.00;99.90;;;;;;5091475;28;20475;-76
2021/08/11 10:50:53;;;;;;;6.25;5.15;;;25.90;99.90;;;;;;5092025;28;20051;-75
2021/08/11 10:53:21;;;;;;;6.72;4.85;;;25.80;99.90;;;;;;5092691;28;20048;-76
2021/08/11 10:55:51;;;;;;;7.72;5.22;;;25.90;99.90;;;;;;5091949;28;20078;-76
2021/08/11 10:58:37;;;;;;;8.13;5.25;;;26.00;99.90;;;;;;5091800;28;20123;-76
2021/08/11 11:01:05;;;;;;;7.68;5.32;;;26.10;99.90;;;;;;5092193;28;20048;-76
2021/08/11 11:03:52;;;;;;;7.40;5.40;;;26.20;99.90;;;;;;5091824;28;20569;-74
2021/08/11 11:06:21;;;;;;;7.10;5.10;;;26.30;99.90;;;;;;5091959;28;20365;-76
2021/08/11 11:08:48;;;;;;;7.47;5.38;;;26.50;99.90;;;;;;5091776;28;20132;-75
2021/08/11 11:11:45;;;;;;;6.60;4.82;;;26.60;99.90;;;;;;5092569;28;20127;-74
2021/08/11 11:14:50;;;;;;;6.57;5.32;;;26.80;99.90;;;;;;5091468;28;20149;-75
2021/08/11 11:17:18;;;;;;;6.25;5.10;;;26.90;99.90;;;;;;5093592;28;20059;-75
2021/08/11 11:20:24;;;;;;;7.93;5.18;;;27.00;99.90;;;;;;5092072;28;20048;-75
2021/08/11 11:23:00;;;;;;;7.07;5.10;;;26.90;99.90;;;;;;5091200;28;20044;-75
2021/08/11 11:26:05;;;;;;;6.45;5.07;;;26.90;99.90;;;;;;5104531;28;20082;-74
2021/08/11 11:29:06;;;;;;;8.40;5.20;;;26.90;99.90;;;;;;5111810;28;20051;-75
2021/08/11 11:31:41;;;;;;;8.88;5.82;;;26.80;99.90;;;;;;5112218;28;20077;-75
2021/08/11 11:34:32;;;;;;;8.00;5.82;;;26.70;99.90;;;;;;5112402;28;20410;-75
2021/08/11 11:37:35;;;;;;;6.85;5.03;;;26.60;99.90;;;;;;5112042;28;20475;-75
2021/08/11 11:40:21;;;;;;;8.73;5.30;;;26.60;99.90;;;;;;5112189;28;20407;-75
2021/08/11 11:42:48;;;;;;;9.25;5.20;;;26.80;99.90;;;;;;5103897;28;20386;-75
2021/08/11 11:45:38;;;;;;;8.30;5.40;;;26.90;99.90;;;;;;5090921;28;20139;-76
2021/08/11 11:48:05;;;;;;;7.38;5.60;;;27.00;99.90;;;;;;5090799;28;20062;-76
2021/08/11 11:50:41;;;;;;;8.57;5.30;;;27.00;99.90;;;;;;5091146;28;20364;-76
2021/08/11 11:53:10;;;;;;;6.28;5.47;;;27.00;99.90;;;;;;5091203;28;20397;-75
2021/08/11 11:55:40;;;;;;;8.25;5.90;;;27.00;99.90;;;;;;5090720;28;20138;-76
2021/08/11 11:58:09;;;;;;;7.78;5.72;;;26.90;99.90;;;;;;5092784;28;20405;-76
2021/08/11 12:00:36;;;;;;;7.00;5.60;;;26.80;99.90;;;;;;5094281;28;20131;-73
2021/08/11 12:03:04;;;;;;;6.88;5.72;;;26.80;99.90;;;;;;5094424;28;20149;-76
2021/08/11 12:05:45;;;;;;;7.55;5.60;;;26.80;99.90;;;;;;5094725;28;20106;-76
2021/08/11 12:08:13;;;;;;;7.68;5.47;;;26.80;99.90;;;;;;5094448;28;20059;-76
2021/08/11 12:10:42;;;;;;;11.30;5.75;;;26.90;99.90;;;;;;5094790;28;20097;-76
2021/08/11 12:13:09;;;;;;;10.70;6.20;;;26.80;99.90;;;;;;5095981;28;20120;-76
2021/08/11 12:15:37;;;;;;;8.27;6.25;;;26.80;99.90;;;;;;5108338;28;20481;-76
2021/08/11 12:18:15;;;;;;;9.15;5.78;;;26.70;99.90;;;;;;5115028;28;20131;-76
2021/08/11 12:20:42;;;;;;;9.25;5.97;;;26.60;99.90;;;;;;5114569;28;20076;-76
2021/08/11 12:23:19;;;;;;;9.70;5.93;;;26.40;99.90;;;;;;5114525;28;20051;-76
2021/08/11 12:25:49;;;;;;;8.38;5.40;;;26.40;99.90;;;;;;5114523;28;20130;-76
2021/08/11 12:28:18;;;;;;;8.52;6.10;;;26.50;99.90;;;;;;5079986;22;20093;-79
2021/08/11 12:30:52;;;;;;;7.15;5.85;;;26.40;99.90;;;;;;4987444;28;20058;-78
2021/08/11 12:33:20;;;;;;;7.82;5.70;;;26.20;99.90;;;;;;4997139;28;20110;-79
2021/08/11 12:35:50;;;;;;;6.60;5.82;;;26.30;99.90;;;;;;4995958;28;20513;-79
2021/08/11 12:38:29;;;;;;;8.05;6.35;;;26.40;99.90;;;;;;4994748;28;20050;-80
2021/08/11 12:40:58;;;;;;;7.03;5.88;;;26.50;99.90;;;;;;4995475;28;20477;-79
2021/08/11 12:43:37;;;;;;;7.03;6.15;;;26.60;99.90;;;;;;4994211;28;20474;-79
2021/08/11 12:46:05;;;;;;;8.57;6.43;;;26.50;99.90;;;;;;4995240;28;20507;-80